»·PEaware :: AAL54 KPDX-KSEA

AAL54 :: KPDX-KSEA

FLIGHT INFORMATION

Flight Status: Arrived
Operator:
American Airlines
More flights by this operator :: More flights under this callsign
Pilot: Alex P. (8595)
Aircraft: BOEING 737-800
(B738)
More flights by this aircraft type
Origin: KPDX Portland Intl
United States
Destination: KSEA Seattle-Tacoma Intl
United States
More flights between these airports :: More routes between these airports
Route: +PTLD1 COUGA DCT KRIEG HAWKZ7
File this flight plan on PilotEdge
Remarks:
Altitude:
(Current/Filed)
20,000ft
Speed:
(Current/Filed)
437kts
Departed: 07-Oct-18 12:26 PM
Arrived: 07-Oct-18 01:02 PM
Distance/Time
Traveled:
112nm/0:36
Distance/Time
To Go:
Arrived

Flight Plot

Page will automatically refresh every two minutes.

Flight plan parsing failed; only flown route is shown


Map Options




Map Legend


Flown Route
Filed Route
Departure Airport
Arrival Airport
Navaid (VOR, NDB)
Fix

Horizontal Profiles

Position Reports

Time Latitude Longitude Heading Altitude Ground
Speed
07-Oct-18 11:56 45.591080 -122.596234 31 26ft 0kts
07-Oct-18 11:57 45.591080 -122.596234 31 25ft 0kts
07-Oct-18 11:58 45.591080 -122.596234 31 25ft 0kts
07-Oct-18 11:59 45.591080 -122.596234 31 25ft 0kts
07-Oct-18 12:00 45.591080 -122.596234 31 25ft 0kts
07-Oct-18 12:01 45.591080 -122.596234 31 25ft 0kts
07-Oct-18 12:02 45.591080 -122.596234 31 26ft 0kts
07-Oct-18 12:03 45.591080 -122.596234 31 26ft 0kts
07-Oct-18 12:04 45.591080 -122.596234 31 26ft 0kts
07-Oct-18 12:05 45.591080 -122.596234 31 26ft 0kts
07-Oct-18 12:06 45.591080 -122.596234 31 26ft 0kts
07-Oct-18 12:07 45.591080 -122.596234 31 26ft 0kts
07-Oct-18 12:08 45.591080 -122.596234 31 26ft 0kts
07-Oct-18 12:09 45.591080 -122.596234 31 26ft 0kts
07-Oct-18 12:10 45.591080 -122.596234 31 26ft 0kts
07-Oct-18 12:11 45.591080 -122.596234 31 26ft 0kts
07-Oct-18 12:12 45.591080 -122.596234 31 26ft 0kts
07-Oct-18 12:13 45.591080 -122.596234 31 26ft 0kts
07-Oct-18 12:14 45.591080 -122.596234 31 26ft 0kts
07-Oct-18 12:15 45.591080 -122.596234 31 26ft 0kts
07-Oct-18 12:16 45.591080 -122.596234 31 26ft 0kts
07-Oct-18 12:17 45.591080 -122.596234 31 26ft 0kts
07-Oct-18 12:18 45.590707 -122.596555 30 26ft 2kts
07-Oct-18 12:19 45.590393 -122.596722 4 26ft 0kts
07-Oct-18 12:20 45.590393 -122.596722 4 26ft 0kts
07-Oct-18 12:21 45.590394 -122.596722 4 26ft 0kts
07-Oct-18 12:22 45.592498 -122.597509 27 26ft 17kts
07-Oct-18 12:23 45.592514 -122.592908 118 26ft 24kts
07-Oct-18 12:24 45.589374 -122.584862 118 26ft 22kts
07-Oct-18 12:25 45.586464 -122.577364 121 26ft 20kts
07-Oct-18 12:26 45.583671 -122.570310 117 26ft 19kts
07-Oct-18 12:27 45.583604 -122.568974 26 26ft 4kts
07-Oct-18 12:28 45.588167 -122.578558 299 26ft 122kts
07-Oct-18 12:29 45.610905 -122.635161 301 2728ft 184kts
07-Oct-18 12:30 45.644554 -122.703937 331 4190ft 247kts
07-Oct-18 12:31 45.716753 -122.706401 2 7222ft 268kts
07-Oct-18 12:32 45.792265 -122.700050 0 10587ft 277kts
07-Oct-18 12:33 45.875062 -122.693397 0 13115ft 304kts
07-Oct-18 12:34 45.959840 -122.686886 359 16688ft 308kts
07-Oct-18 12:35 46.046604 -122.680352 358 19287ft 316kts
07-Oct-18 12:36 46.135163 -122.684439 347 20261ft 318kts
07-Oct-18 12:37 46.222271 -122.702876 349 20278ft 317kts
07-Oct-18 12:38 46.309825 -122.720188 349 20276ft 317kts
07-Oct-18 12:39 46.398320 -122.725296 355 20275ft 319kts
07-Oct-18 12:40 46.487308 -122.728210 354 20273ft 320kts
07-Oct-18 12:41 46.576180 -122.731459 354 20259ft 320kts
07-Oct-18 12:42 46.664969 -122.734639 354 20117ft 313kts
07-Oct-18 12:43 46.748785 -122.737628 354 18723ft 295kts
07-Oct-18 12:44 46.823876 -122.692336 30 16991ft 317kts
07-Oct-18 12:45 46.892623 -122.613216 30 15423ft 311kts
07-Oct-18 12:46 46.960079 -122.550915 8 14661ft 271kts
07-Oct-18 12:47 47.033169 -122.520277 11 13473ft 273kts
07-Oct-18 12:48 47.106704 -122.493992 1 12302ft 268kts
07-Oct-18 12:49 47.181489 -122.481642 3 11139ft 273kts
07-Oct-18 12:50 47.244206 -122.471759 3 10150ft 269kts
07-Oct-18 12:51 47.331218 -122.458535 4 8790ft 271kts
07-Oct-18 12:52 47.404529 -122.455079 357 7653ft 257kts
07-Oct-18 12:53 47.475024 -122.455379 359 6560ft 248kts
07-Oct-18 12:54 47.540378 -122.455632 359 5989ft 220kts
07-Oct-18 12:55 47.591955 -122.454901 0 5086ft 225kts
07-Oct-18 12:56 47.660623 -122.452743 12 3776ft 195kts
07-Oct-18 12:57 47.670418 -122.400196 97 3043ft 166kts
07-Oct-18 12:58 47.663328 -122.334451 135 2950ft 164kts
07-Oct-18 12:59 47.621220 -122.310862 175 2985ft 161kts
07-Oct-18 13:00 47.575784 -122.310022 180 2623ft 166kts
07-Oct-18 13:01 47.532410 -122.310412 180 1828ft 145kts
07-Oct-18 13:02 47.494085 -122.310695 178 1049ft 132kts
07-Oct-18 13:03 47.457656 -122.311066 179 442ft 125kts
07-Oct-18 13:04 47.445207 -122.309934 151 441ft 24kts

Navigation Log

Ident Type
Flight plan parsing failed, navigation log unavailable